Time;durP1;ratioP1;P1;durP2;ratioP2;P2;SDS_P1;SDS_P2;PMS_P1;PMS_P2;Temp;Humidity;BMP_temperature;BMP_pressure;BME280_temperature;BME280_humidity;BME280_pressure;Samples;Min_cycle;Max_cycle;Signal;HPM_P1;HPM_P2
2023/03/07 00:00:54;;;;;;;19.80;13.00;;;;;;;2.60;62.94;96383.70;110229;1245;69238;-69
2023/03/07 00:03:24;;;;;;;18.20;12.70;;;;;;;2.47;63.07;96388.90;110146;1246;69437;-69
2023/03/07 00:06:02;;;;;;;19.60;13.10;;;;;;;2.28;63.89;96392.76;110169;1245;59744;-68
2023/03/07 00:08:33;;;;;;;16.60;10.90;;;;;;;2.09;66.96;96393.80;110300;1244;59630;-67
2023/03/07 00:11:07;;;;;;;17.00;11.40;;;;;;;2.07;67.83;96390.46;110256;1241;71417;-68
2023/03/07 00:13:39;;;;;;;13.50;9.40;;;;;;;2.05;70.03;96390.60;110232;1245;69416;-68
2023/03/07 00:16:14;;;;;;;13.00;8.80;;;;;;;2.01;73.87;96390.25;110099;1241;68501;-68
2023/03/07 00:18:45;;;;;;;11.20;7.40;;;;;;;2.00;74.78;96387.23;110169;1245;59751;-68
2023/03/07 00:21:19;;;;;;;13.20;8.10;;;;;;;1.98;76.93;96383.20;110224;1246;59686;-68
2023/03/07 00:23:51;;;;;;;14.40;8.50;;;;;;;1.97;76.37;96381.92;110163;1247;70452;-68
2023/03/07 00:26:24;;;;;;;12.20;8.30;;;;;;;1.92;82.53;96377.86;110148;1241;68789;-68
2023/03/07 00:28:55;;;;;;;9.40;6.00;;;;;;;1.91;78.76;96375.01;110106;1244;68527;-68
2023/03/07 00:31:26;;;;;;;10.50;7.00;;;;;;;1.89;83.53;96378.43;110118;1246;59671;-68
2023/03/07 00:33:57;;;;;;;13.30;8.80;;;;;;;1.84;85.72;96380.22;110165;1243;59693;-68
2023/03/07 00:36:28;;;;;;;11.10;8.60;;;;;;;1.79;87.41;96383.09;110116;1241;71867;-68
2023/03/07 00:38:58;;;;;;;15.20;9.40;;;;;;;1.75;88.95;96387.59;110133;1245;69697;-68
2023/03/07 00:41:29;;;;;;;14.90;9.90;;;;;;;1.69;84.50;96379.47;110172;1245;69429;-70
2023/03/07 00:43:59;;;;;;;;;;;;;;;1.61;81.41;96369.64;110182;1247;59693;-68
2023/03/07 00:46:29;;;;;;;12.20;7.60;;;;;;;1.55;82.18;96371.30;110169;1243;60087;-68
2023/03/07 00:49:01;;;;;;;14.00;9.50;;;;;;;1.50;80.25;96362.46;110184;1245;70671;-68
2023/03/07 00:51:31;;;;;;;;;;;;;;;1.44;80.26;96358.00;110173;1245;69226;-69
2023/03/07 00:54:05;;;;;;;11.60;7.10;;;;;;;1.32;78.29;96356.73;110157;1245;69198;-69
2023/03/07 00:56:35;;;;;;;11.00;8.00;;;;;;;1.22;76.93;96353.48;110114;1241;59743;-69
2023/03/07 00:59:08;;;;;;;12.90;7.80;;;;;;;1.12;78.93;96351.23;110143;1243;59760;-69
2023/03/07 01:01:41;;;;;;;11.90;8.30;;;;;;;1.05;84.30;96347.67;110165;1245;71947;-69
2023/03/07 01:04:10;;;;;;;14.10;8.70;;;;;;;0.98;85.18;96345.11;110172;1243;69187;-69
2023/03/07 01:06:41;;;;;;;17.20;12.30;;;;;;;0.92;91.95;96342.67;110099;1246;69874;-69
2023/03/07 01:09:11;;;;;;;13.50;8.90;;;;;;;0.87;93.84;96339.52;110200;1242;59675;-69
2023/03/07 01:11:44;;;;;;;15.70;10.70;;;;;;;0.82;90.92;96329.42;110168;1245;59689;-69
2023/03/07 01:14:18;;;;;;;16.80;10.70;;;;;;;0.73;93.56;96323.90;109514;1245;811833;-69
2023/03/07 01:16:48;;;;;;;;;;;;;;;0.66;90.84;96322.56;110156;1242;68584;-68
2023/03/07 01:19:18;;;;;;;19.60;11.90;;;;;;;0.56;95.74;96320.17;110148;1245;68540;-69
2023/03/07 01:21:50;;;;;;;23.10;14.60;;;;;;;0.52;95.21;96312.17;110123;1246;59809;-69
2023/03/07 01:24:21;;;;;;;18.40;12.50;;;;;;;0.46;96.79;96308.12;110162;1247;59700;-69
2023/03/07 01:26:51;;;;;;;15.30;10.40;;;;;;;0.45;89.47;96300.83;110161;1244;70516;-69
2023/03/07 01:29:26;;;;;;;22.00;12.90;;;;;;;0.38;88.43;96290.53;110179;1246;69329;-68
2023/03/07 01:31:56;;;;;;;22.00;13.80;;;;;;;0.28;96.45;96286.75;110134;1246;69277;-68
2023/03/07 01:34:25;;;;;;;;;;;;;;;0.25;98.67;96281.77;110097;1244;59750;-68
2023/03/07 01:36:59;;;;;;;19.60;12.80;;;;;;;0.22;98.95;96275.04;110146;1242;59684;-68
2023/03/07 01:39:29;;;;;;;20.90;12.90;;;;;;;0.20;97.29;96272.57;110122;1246;71320;-68
2023/03/07 01:42:04;;;;;;;25.80;14.90;;;;;;;0.19;98.61;96267.16;110160;1245;70191;-68
2023/03/07 01:45:05;;;;;;;22.30;14.20;;;;;;;0.17;99.72;96259.88;110154;1245;69309;-68
2023/03/07 01:47:45;;;;;;;19.80;13.50;;;;;;;0.17;100.00;96264.88;110148;1246;59743;-68
2023/03/07 01:50:18;;;;;;;18.90;12.10;;;;;;;0.19;98.70;96261.34;110169;1244;59675;-68
2023/03/07 01:52:58;;;;;;;19.50;13.00;;;;;;;0.20;95.39;96260.80;110142;1246;69679;-67
2023/03/07 01:55:33;;;;;;;21.30;12.70;;;;;;;0.17;93.89;96264.00;110126;1246;68459;-67
2023/03/07 01:58:15;;;;;;;18.40;11.90;;;;;;;0.12;95.11;96263.57;110113;1245;69255;-67
2023/03/07 02:00:46;;;;;;;21.90;11.50;;;;;;;0.10;97.89;96265.69;110129;1246;60007;-67
2023/03/07 02:03:32;;;;;;;18.30;10.80;;;;;;;0.10;96.57;96269.63;110153;1244;59740;-67
2023/03/07 02:06:10;;;;;;;17.40;11.10;;;;;;;0.11;97.29;96274.24;110155;1243;70676;-67
2023/03/07 02:08:47;;;;;;;19.40;11.90;;;;;;;0.13;98.30;96271.89;110205;1244;69194;-67
2023/03/07 02:11:19;;;;;;;14.30;9.00;;;;;;;0.17;100.00;96270.87;110095;1245;69107;-67
2023/03/07 02:13:49;;;;;;;20.30;11.70;;;;;;;0.17;100.00;96264.50;110076;1250;59715;-68
2023/03/07 02:16:21;;;;;;;19.10;11.30;;;;;;;0.16;100.00;96255.48;110062;1243;59765;-67
2023/03/07 02:18:52;;;;;;;17.10;11.30;;;;;;;0.15;100.00;96252.43;109982;1252;71386;-67
2023/03/07 02:21:47;;;;;;;19.30;11.80;;;;;;;0.17;100.00;96246.66;110071;1245;69262;-67
2023/03/07 02:24:45;;;;;;;19.60;11.10;;;;;;;0.19;100.00;96251.04;110064;1243;69261;-68
2023/03/07 02:27:17;;;;;;;16.50;11.40;;;;;;;0.22;100.00;96257.06;110053;1245;59719;-67
2023/03/07 02:29:48;;;;;;;18.60;10.90;;;;;;;0.25;100.00;96263.10;110191;1245;59715;-68
2023/03/07 02:32:20;;;;;;;17.20;11.20;;;;;;;0.27;100.00;96264.34;110192;1241;71399;-68
2023/03/07 02:34:52;;;;;;;13.60;8.60;;;;;;;0.30;100.00;96265.08;110202;1245;69221;-68
2023/03/07 02:37:29;;;;;;;19.90;12.30;;;;;;;0.31;100.00;96273.95;110132;1245;68395;-68
2023/03/07 02:40:12;;;;;;;16.30;10.00;;;;;;;0.28;100.00;96283.52;110187;1246;59686;-68
2023/03/07 02:42:46;;;;;;;17.50;11.10;;;;;;;0.30;100.00;96274.33;110184;1245;59660;-68
2023/03/07 02:45:18;;;;;;;16.80;10.40;;;;;;;0.32;100.00;96270.45;110142;1246;70645;-68
2023/03/07 02:47:52;;;;;;;16.60;10.60;;;;;;;0.33;100.00;96267.50;110122;1249;68686;-68
2023/03/07 02:50:28;;;;;;;19.80;11.00;;;;;;;0.33;100.00;96264.90;110158;1241;68387;-68
2023/03/07 02:53:02;;;;;;;20.00;11.80;;;;;;;0.35;100.00;96255.54;110135;1247;59751;-68
2023/03/07 02:55:34;;;;;;;23.60;12.40;;;;;;;0.38;100.00;96257.33;110180;1241;59742;-69
2023/03/07 02:58:06;;;;;;;21.10;11.90;;;;;;;0.37;100.00;96260.40;110225;1241;71183;-68
2023/03/07 03:00:38;;;;;;;18.00;10.70;;;;;;;0.40;100.00;96266.63;110168;1253;69228;-68
2023/03/07 03:03:10;;;;;;;17.90;12.20;;;;;;;0.42;100.00;96258.27;110132;1241;69733;-68
2023/03/07 03:05:42;;;;;;;20.40;11.00;;;;;;;0.45;100.00;96258.63;110161;1246;59743;-68
2023/03/07 03:08:13;;;;;;;18.30;11.30;;;;;;;0.47;100.00;96263.85;110183;1243;59702;-68
2023/03/07 03:10:53;;;;;;;17.00;10.60;;;;;;;0.50;100.00;96269.00;110143;1241;71246;-69
2023/03/07 03:13:25;;;;;;;14.50;9.60;;;;;;;0.52;100.00;96269.98;110139;1246;69283;-69
2023/03/07 03:15:58;;;;;;;15.60;10.10;;;;;;;0.54;100.00;96275.36;110158;1246;69315;-69
2023/03/07 03:18:30;;;;;;;14.70;9.40;;;;;;;0.55;100.00;96275.63;110173;1243;59685;-68
2023/03/07 03:21:07;;;;;;;11.10;8.30;;;;;;;0.58;100.00;96276.84;110116;1244;59739;-68
2023/03/07 03:23:37;;;;;;;15.60;10.70;;;;;;;0.60;100.00;96276.23;110134;1243;71251;-69
2023/03/07 03:26:10;;;;;;;15.90;10.30;;;;;;;0.60;100.00;96275.90;110121;1244;69077;-69
2023/03/07 03:28:43;;;;;;;19.20;10.00;;;;;;;0.58;100.00;96273.61;110139;1242;68513;-68
2023/03/07 03:31:17;;;;;;;16.70;10.20;;;;;;;0.56;100.00;96270.45;110136;1244;59748;-69
2023/03/07 03:33:51;;;;;;;16.20;10.60;;;;;;;0.54;100.00;96270.71;110177;1244;59704;-68
2023/03/07 03:36:24;;;;;;;14.40;9.00;;;;;;;0.52;100.00;96271.34;110087;1245;71475;-69
2023/03/07 03:38:57;;;;;;;15.90;10.10;;;;;;;0.51;100.00;96274.10;110151;1245;68189;-69
2023/03/07 03:41:28;;;;;;;15.80;10.20;;;;;;;0.50;100.00;96280.99;110151;1244;69132;-69
2023/03/07 03:43:58;;;;;;;;;;;;;;;0.48;100.00;96282.00;110167;1245;59731;-69
2023/03/07 03:46:30;;;;;;;15.80;9.30;;;;;;;0.46;100.00;96282.59;111382;1241;59632;-67
2023/03/07 03:49:05;;;;;;;15.30;9.60;;;;;;;0.47;100.00;96282.55;110703;1244;70883;-70
2023/03/07 03:51:36;;;;;;;16.70;10.50;;;;;;;0.47;100.00;96279.61;110298;1241;69087;-69
2023/03/07 03:54:06;;;;;;;16.50;11.20;;;;;;;0.47;100.00;96278.61;110296;1241;69889;-69
2023/03/07 03:56:37;;;;;;;11.50;7.40;;;;;;;0.45;100.00;96280.90;110178;1245;59784;-69
2023/03/07 03:59:07;;;;;;;10.80;7.10;;;;;;;0.45;100.00;96277.65;110245;1241;59665;-69
2023/03/07 04:01:37;;;;;;;13.60;8.60;;;;;;;0.44;100.00;96280.78;110203;1243;71374;-69
2023/03/07 04:04:08;;;;;;;13.40;9.50;;;;;;;0.43;100.00;96278.96;110168;1241;68494;-70
2023/03/07 04:06:38;;;;;;;15.50;10.70;;;;;;;0.43;100.00;96280.19;110182;1245;70226;-69
2023/03/07 04:09:09;;;;;;;15.60;9.60;;;;;;;0.43;100.00;96274.66;110113;1245;59667;-69
2023/03/07 04:11:42;;;;;;;12.70;8.00;;;;;;;0.43;100.00;96271.60;110127;1246;59703;-69
2023/03/07 04:14:12;;;;;;;13.50;8.60;;;;;;;0.44;100.00;96276.85;110197;1241;70255;-69
2023/03/07 04:16:43;;;;;;;18.00;10.70;;;;;;;0.44;100.00;96277.05;110040;1245;69159;-69
2023/03/07 04:19:13;;;;;;;15.70;9.90;;;;;;;0.41;100.00;96274.08;110142;1245;69216;-69
2023/03/07 04:21:43;;;;;;;;;;;;;;;0.41;100.00;96275.66;110125;1241;59687;-69
2023/03/07 04:24:16;;;;;;;15.90;10.10;;;;;;;0.40;100.00;96275.68;110160;1251;60159;-69
2023/03/07 04:26:45;;;;;;;13.40;9.40;;;;;;;0.40;100.00;96272.05;110141;1245;71577;-69
2023/03/07 04:29:16;;;;;;;14.50;9.80;;;;;;;0.42;100.00;96269.80;110129;1245;69092;-69
2023/03/07 04:31:54;;;;;;;15.70;9.80;;;;;;;0.43;100.00;96266.47;110105;1245;69303;-69
2023/03/07 04:34:24;;;;;;;15.50;10.20;;;;;;;0.42;100.00;96266.88;110158;1246;59694;-69
2023/03/07 04:36:54;;;;;;;15.10;9.00;;;;;;;0.41;100.00;96265.02;110150;1243;59659;-69
2023/03/07 04:39:24;;;;;;;12.70;8.60;;;;;;;0.41;100.00;96267.06;110292;1245;71830;-69
2023/03/07 04:41:53;;;;;;;14.30;10.70;;;;;;;0.42;100.00;96271.33;110136;1244;68548;-69
2023/03/07 04:44:24;;;;;;;13.90;8.50;;;;;;;0.42;100.00;96270.79;110176;1245;69308;-69
2023/03/07 04:46:53;;;;;;;11.60;8.20;;;;;;;0.43;100.00;96269.01;110160;1245;60103;-69
2023/03/07 04:49:22;;;;;;;14.60;10.00;;;;;;;0.45;100.00;96276.80;110131;1245;59816;-69
2023/03/07 04:51:52;;;;;;;17.40;10.60;;;;;;;0.46;100.00;96276.39;110133;1241;71155;-69
2023/03/07 04:54:21;;;;;;;;;;;;;;;0.48;100.00;96273.08;110198;1245;69257;-69
2023/03/07 04:56:52;;;;;;;15.50;9.30;;;;;;;0.49;100.00;96270.29;110115;1243;69267;-69
2023/03/07 04:59:22;;;;;;;15.80;9.40;;;;;;;0.50;100.00;96270.39;110137;1248;59737;-69
2023/03/07 05:01:52;;;;;;;17.30;11.30;;;;;;;0.50;100.00;96271.73;110150;1241;59692;-69
2023/03/07 05:04:21;;;;;;;14.50;9.00;;;;;;;0.52;100.00;96268.45;110228;1244;71966;-69
2023/03/07 05:06:51;;;;;;;19.60;15.20;;;;;;;0.53;100.00;96269.21;110161;1241;69611;-69
2023/03/07 05:09:20;;;;;;;18.00;12.70;;;;;;;0.54;100.00;96269.15;110125;1246;69237;-69
2023/03/07 05:11:49;;;;;;;19.50;13.80;;;;;;;0.57;100.00;96270.94;110114;1245;59695;-69
2023/03/07 05:14:21;;;;;;;17.80;12.40;;;;;;;0.59;100.00;96269.77;110181;1241;59632;-68
2023/03/07 05:16:50;;;;;;;19.30;12.70;;;;;;;0.62;100.00;96270.83;110169;1243;71349;-69
2023/03/07 05:19:20;;;;;;;21.00;13.10;;;;;;;0.63;100.00;96276.06;110139;1245;69107;-69
2023/03/07 05:21:49;;;;;;;;;;;;;;;0.66;100.00;96277.66;110118;1242;69913;-69
2023/03/07 05:24:19;;;;;;;21.20;13.20;;;;;;;0.68;100.00;96279.58;110120;1245;59756;-69
2023/03/07 05:26:50;;;;;;;24.70;15.30;;;;;;;0.68;100.00;96278.90;110118;1241;59751;-69
2023/03/07 05:29:19;;;;;;;21.90;12.90;;;;;;;0.67;100.00;96284.27;110170;1245;71364;-68
2023/03/07 05:31:48;;;;;;;21.00;13.60;;;;;;;0.68;100.00;96284.22;110211;1244;69835;-69
2023/03/07 05:34:17;;;;;;;13.70;9.80;;;;;;;0.70;100.00;96287.04;110245;1245;69937;-69
2023/03/07 05:36:47;;;;;;;21.00;12.60;;;;;;;0.73;100.00;96279.00;110160;1241;59671;-69
2023/03/07 05:39:17;;;;;;;17.50;11.10;;;;;;;0.74;100.00;96277.05;110135;1244;59712;-69
2023/03/07 05:41:46;;;;;;;18.70;11.70;;;;;;;0.76;100.00;96277.29;110140;1243;71334;-69
2023/03/07 05:44:16;;;;;;;15.10;10.60;;;;;;;0.80;100.00;96276.25;110125;1243;69632;-70
2023/03/07 05:46:45;;;;;;;17.80;11.00;;;;;;;0.85;100.00;96283.36;110138;1245;69852;-68
2023/03/07 05:49:15;;;;;;;16.00;10.70;;;;;;;0.88;100.00;96286.60;110137;1246;59731;-68
2023/03/07 05:51:44;;;;;;;16.20;10.80;;;;;;;0.89;100.00;96283.15;110132;1244;59653;-69
2023/03/07 05:54:13;;;;;;;16.20;11.50;;;;;;;0.93;100.00;96282.91;110093;1247;71387;-70
2023/03/07 05:56:42;;;;;;;16.30;11.90;;;;;;;0.98;100.00;96291.58;110129;1243;69273;-68
2023/03/07 05:59:14;;;;;;;23.00;12.70;;;;;;;1.02;100.00;96296.00;110080;1245;70231;-68
2023/03/07 06:01:44;;;;;;;18.80;11.30;;;;;;;1.05;100.00;96305.98;110079;1245;59747;-68
2023/03/07 06:04:13;;;;;;;17.30;10.70;;;;;;;1.06;100.00;96303.52;110076;1244;60225;-68
2023/03/07 06:06:43;;;;;;;17.80;10.80;;;;;;;1.08;100.00;96309.80;110053;1245;70662;-69
2023/03/07 06:09:12;;;;;;;16.20;11.20;;;;;;;1.09;100.00;96304.04;110131;1244;68316;-68
2023/03/07 06:11:41;;;;;;;17.60;12.10;;;;;;;1.13;100.00;96305.74;110128;1245;68447;-68
2023/03/07 06:14:10;;;;;;;18.40;12.30;;;;;;;1.16;100.00;96308.11;110202;1241;59770;-68
2023/03/07 06:16:39;;;;;;;17.90;12.10;;;;;;;1.19;100.00;96305.26;110207;1242;59734;-69
2023/03/07 06:19:09;;;;;;;17.90;12.90;;;;;;;1.23;100.00;96307.27;110125;1241;70732;-68
2023/03/07 06:21:38;;;;;;;22.70;16.60;;;;;;;1.29;100.00;96309.14;110128;1244;69329;-69
2023/03/07 06:24:08;;;;;;;22.40;14.40;;;;;;;1.34;100.00;96309.57;110110;1245;69966;-68
2023/03/07 06:26:37;;;;;;;27.10;17.40;;;;;;;1.39;100.00;96307.05;110168;1242;59688;-68
2023/03/07 06:29:06;;;;;;;30.50;19.00;;;;;;;1.45;100.00;96308.32;110114;1244;59782;-68
2023/03/07 06:31:35;;;;;;;27.80;16.80;;;;;;;1.48;100.00;96305.05;110128;1244;71499;-68
2023/03/07 06:34:03;;;;;;;21.30;15.60;;;;;;;1.50;100.00;96304.40;110166;1244;69753;-68
2023/03/07 06:36:33;;;;;;;23.00;15.70;;;;;;;1.54;100.00;96303.50;110229;1243;70239;-68
2023/03/07 06:39:02;;;;;;;26.70;18.30;;;;;;;1.60;100.00;96308.04;110142;1245;59675;-69
2023/03/07 06:41:32;;;;;;;27.20;18.60;;;;;;;1.65;100.00;96314.80;110190;1244;59737;-69
2023/03/07 06:44:01;;;;;;;26.40;17.20;;;;;;;1.68;100.00;96321.17;110249;1245;71406;-68
2023/03/07 06:46:33;;;;;;;33.60;20.50;;;;;;;1.71;100.00;96322.70;110216;1241;69227;-69
2023/03/07 06:49:06;;;;;;;28.80;19.40;;;;;;;1.86;100.00;96330.63;110195;1241;69284;-70
2023/03/07 06:51:35;;;;;;;29.30;19.50;;;;;;;2.02;100.00;96331.45;110255;1241;59707;-68
2023/03/07 06:54:06;;;;;;;;;;;;;;;2.04;100.00;96330.13;110182;1243;59702;-67
2023/03/07 06:56:35;;;;;;;25.70;17.10;;;;;;;2.06;100.00;96329.34;110126;1244;71390;-66
2023/03/07 06:59:04;;;;;;;24.70;16.50;;;;;;;2.02;100.00;96332.80;110322;1243;69202;-69
2023/03/07 07:01:34;;;;;;;21.10;15.90;;;;;;;2.00;100.00;96334.16;110120;1245;69768;-67
2023/03/07 07:04:03;;;;;;;18.50;13.10;;;;;;;1.92;100.00;96339.04;110124;1245;59678;-67
2023/03/07 07:06:32;;;;;;;20.70;14.80;;;;;;;1.90;100.00;96345.02;110165;1241;59696;-69
2023/03/07 07:09:04;;;;;;;29.00;19.10;;;;;;;1.90;100.00;96344.31;110202;1244;70936;-67
2023/03/07 07:11:37;;;;;;;36.20;22.00;;;;;;;1.89;100.00;96345.05;110134;1244;69265;-67
2023/03/07 07:14:11;;;;;;;25.80;17.60;;;;;;;1.93;100.00;96348.59;110145;1241;69608;-67
2023/03/07 07:16:40;;;;;;;20.70;14.40;;;;;;;1.97;100.00;96350.25;110110;1246;59725;-67
2023/03/07 07:19:09;;;;;;;20.50;13.20;;;;;;;2.00;100.00;96347.37;110142;1243;59700;-67
2023/03/07 07:21:38;;;;;;;18.60;12.00;;;;;;;2.01;100.00;96349.53;110188;1244;70641;-67
2023/03/07 07:24:10;;;;;;;20.50;12.00;;;;;;;2.06;100.00;96347.88;110192;1241;69425;-67
2023/03/07 07:26:39;;;;;;;16.70;12.20;;;;;;;2.13;100.00;96345.98;110073;1245;69086;-67
2023/03/07 07:29:08;;;;;;;16.40;11.20;;;;;;;2.24;100.00;96342.25;110189;1241;59672;-67
2023/03/07 07:31:37;;;;;;;13.00;9.40;;;;;;;2.40;100.00;96344.95;110144;1244;59720;-67
2023/03/07 07:34:07;;;;;;;16.60;11.30;;;;;;;2.56;100.00;96349.39;110145;1243;70557;-67
2023/03/07 07:36:36;;;;;;;16.00;11.70;;;;;;;2.70;100.00;96353.17;110180;1244;69813;-67
2023/03/07 07:39:06;;;;;;;12.90;8.90;;;;;;;2.86;100.00;96357.59;110225;1241;69281;-67
2023/03/07 07:41:36;;;;;;;16.20;11.00;;;;;;;3.02;100.00;96358.16;110096;1241;59703;-67
2023/03/07 07:44:06;;;;;;;14.80;10.70;;;;;;;3.18;100.00;96362.09;110155;1244;59692;-67
2023/03/07 07:46:38;;;;;;;17.20;12.10;;;;;;;3.39;100.00;96364.94;110183;1241;71390;-66
2023/03/07 07:49:08;;;;;;;14.50;10.30;;;;;;;3.54;99.88;96365.77;110151;1244;69240;-67
2023/03/07 07:51:39;;;;;;;14.70;10.80;;;;;;;3.70;98.91;96361.81;110115;1244;68518;-67
2023/03/07 07:54:09;;;;;;;13.70;9.10;;;;;;;3.86;98.62;96353.79;110166;1244;59708;-67
2023/03/07 07:56:38;;;;;;;15.60;11.30;;;;;;;3.91;96.82;96352.24;110164;1241;59743;-67
2023/03/07 07:59:07;;;;;;;14.00;10.50;;;;;;;4.02;95.98;96353.79;110129;1241;71759;-67
2023/03/07 08:01:36;;;;;;;17.00;11.60;;;;;;;4.19;95.73;96353.39;110239;1241;68661;-67
2023/03/07 08:04:05;;;;;;;16.30;12.10;;;;;;;4.43;96.07;96346.15;110263;1241;69064;-67
2023/03/07 08:06:34;;;;;;;16.70;11.70;;;;;;;4.63;95.06;96346.56;110171;1244;59750;-67
2023/03/07 08:09:04;;;;;;;13.90;10.60;;;;;;;4.85;94.20;96355.77;110188;1243;59587;-67
2023/03/07 08:11:33;;;;;;;16.10;10.90;;;;;;;4.93;92.10;96361.68;110171;1241;71453;-68
2023/03/07 08:14:02;;;;;;;13.70;10.60;;;;;;;5.08;91.31;96369.98;110110;1241;69720;-67
2023/03/07 08:16:31;;;;;;;16.50;11.50;;;;;;;5.04;90.03;96372.98;110103;1241;69900;-67
2023/03/07 08:19:00;;;;;;;17.00;11.50;;;;;;;5.04;88.34;96376.27;110184;1241;59692;-67
2023/03/07 08:21:30;;;;;;;15.60;12.30;;;;;;;4.92;87.47;96374.52;110138;1243;59684;-67
2023/03/07 08:23:59;;;;;;;17.70;13.10;;;;;;;4.77;88.69;96375.14;110147;1247;70628;-68
2023/03/07 08:26:28;;;;;;;18.60;12.50;;;;;;;4.68;90.62;96377.49;110168;1244;70014;-67
2023/03/07 08:28:57;;;;;;;15.60;12.30;;;;;;;4.72;91.25;96375.50;110175;1244;69884;-68
2023/03/07 08:31:26;;;;;;;16.10;12.20;;;;;;;4.73;91.48;96379.37;110175;1245;59740;-67
2023/03/07 08:33:56;;;;;;;15.60;12.60;;;;;;;4.89;92.08;96381.44;110154;1241;59697;-67
2023/03/07 08:36:25;;;;;;;15.50;12.00;;;;;;;5.06;91.39;96376.52;110153;1241;71969;-67
2023/03/07 08:38:54;;;;;;;16.20;12.00;;;;;;;5.18;90.50;96371.26;110155;1244;68635;-67
2023/03/07 08:41:23;;;;;;;16.10;12.00;;;;;;;5.19;90.60;96373.43;110118;1244;69268;-67
2023/03/07 08:43:52;;;;;;;19.90;13.50;;;;;;;5.24;90.30;96372.52;110163;1241;59702;-67
2023/03/07 08:46:22;;;;;;;17.60;13.30;;;;;;;5.31;89.77;96377.90;110091;1244;59681;-67
2023/03/07 08:48:51;;;;;;;17.40;12.60;;;;;;;5.30;88.93;96383.20;110161;1241;71915;-67
2023/03/07 08:51:20;;;;;;;15.20;11.90;;;;;;;5.38;88.85;96386.94;110161;1244;68362;-67
2023/03/07 08:53:48;;;;;;;19.90;14.70;;;;;;;5.36;87.57;96389.34;110126;1241;69285;-67
2023/03/07 08:56:18;;;;;;;19.70;14.30;;;;;;;5.33;87.46;96392.27;110114;1244;59671;-67
2023/03/07 08:58:50;;;;;;;21.10;13.90;;;;;;;5.18;87.28;96398.53;110206;1244;59628;-66
2023/03/07 09:01:19;;;;;;;19.30;12.60;;;;;;;5.18;87.36;96401.42;110094;1243;71092;-67
2023/03/07 09:03:48;;;;;;;21.30;15.50;;;;;;;5.08;87.95;96404.89;110151;1243;69894;-67
2023/03/07 09:06:20;;;;;;;21.10;12.60;;;;;;;5.00;87.83;96407.27;110093;1244;69866;-67
2023/03/07 09:08:50;;;;;;;17.30;13.40;;;;;;;4.90;89.36;96407.64;110148;1241;59703;-67
2023/03/07 09:11:20;;;;;;;18.30;13.00;;;;;;;4.93;89.50;96404.98;110172;1243;59675;-67
2023/03/07 09:13:49;;;;;;;25.50;17.70;;;;;;;4.94;92.64;96406.98;110180;1244;70989;-67
2023/03/07 09:16:21;;;;;;;25.10;18.00;;;;;;;4.80;95.71;96410.85;110130;1241;69055;-67
2023/03/07 09:18:50;;;;;;;24.80;18.30;;;;;;;4.72;95.26;96409.46;110099;1241;69836;-67
2023/03/07 09:21:19;;;;;;;25.30;18.60;;;;;;;4.59;95.81;96416.73;110112;1241;59753;-67
2023/03/07 09:23:49;;;;;;;28.40;18.40;;;;;;;4.49;97.11;96412.88;110111;1244;59636;-67
2023/03/07 09:26:18;;;;;;;27.40;18.30;;;;;;;4.38;98.66;96414.60;110181;1241;71938;-67
2023/03/07 09:28:47;;;;;;;33.80;22.10;;;;;;;4.36;98.78;96416.12;110179;1241;69178;-68
2023/03/07 09:31:16;;;;;;;30.20;18.40;;;;;;;4.29;98.12;96418.44;110141;1241;69855;-67
2023/03/07 09:33:45;;;;;;;28.70;20.80;;;;;;;4.23;98.82;96419.53;110154;1243;59693;-67
2023/03/07 09:36:16;;;;;;;27.70;20.10;;;;;;;4.19;99.75;96422.02;110170;1244;60114;-67
2023/03/07 09:38:47;;;;;;;25.90;19.00;;;;;;;4.22;99.79;96416.83;110189;1250;71445;-67
2023/03/07 09:41:54;;;;;;;66.40;40.20;;;;;;;4.24;99.92;96415.34;110223;1244;70065;-67
2023/03/07 09:44:44;;;;;;;29.90;20.90;;;;;;;4.33;99.98;96408.92;110144;1241;69764;-67
2023/03/07 09:48:06;;;;;;;23.70;16.90;;;;;;;4.44;99.44;96407.66;110161;1245;60126;-66
2023/03/07 09:50:56;;;;;;;27.30;20.10;;;;;;;4.58;98.42;96401.91;109879;1241;59763;-68
2023/03/07 09:53:38;;;;;;;26.60;18.50;;;;;;;4.71;97.41;96398.16;110157;1241;70442;-67
2023/03/07 09:56:45;;;;;;;27.90;17.70;;;;;;;4.83;96.66;96401.51;110115;1241;70035;-67
2023/03/07 09:59:23;;;;;;;27.20;18.20;;;;;;;5.01;95.36;96402.02;109521;1250;67584;-67
2023/03/07 10:02:22;;;;;;;23.80;17.50;;;;;;;5.06;92.36;96405.37;110068;1241;59695;-67
2023/03/07 10:04:57;;;;;;;22.80;15.80;;;;;;;5.27;91.92;96402.04;110171;1241;59667;-67
2023/03/07 10:07:28;;;;;;;23.10;15.10;;;;;;;5.44;91.03;96401.37;110121;1245;71414;-67
2023/03/07 10:10:00;;;;;;;21.80;14.40;;;;;;;5.57;90.47;96405.84;110109;1242;68488;-67
2023/03/07 10:12:47;;;;;;;20.30;14.20;;;;;;;5.72;89.79;96406.40;110162;1241;69289;-67
2023/03/07 10:15:38;;;;;;;20.20;13.40;;;;;;;5.78;89.61;96406.15;110194;1241;59742;-67
2023/03/07 10:18:12;;;;;;;19.10;14.80;;;;;;;5.81;89.80;96405.62;110124;1244;59649;-67
2023/03/07 10:20:46;;;;;;;21.50;14.90;;;;;;;5.85;89.70;96405.63;110148;1241;72394;-67
2023/03/07 10:23:36;;;;;;;20.80;14.40;;;;;;;5.97;89.05;96403.10;110192;1241;69229;-67
2023/03/07 10:26:44;;;;;;;20.60;15.30;;;;;;;6.13;88.75;96398.52;110178;1244;67737;-67
2023/03/07 10:29:17;;;;;;;18.60;14.50;;;;;;;6.25;87.62;96392.16;109902;1241;59643;-68
2023/03/07 10:31:50;;;;;;;15.70;12.40;;;;;;;6.39;87.29;96391.27;110169;1244;59734;-68
2023/03/07 10:34:27;;;;;;;18.00;13.40;;;;;;;6.63;85.75;96390.02;110187;1244;71390;-68
2023/03/07 10:37:19;;;;;;;16.20;13.00;;;;;;;6.94;85.89;96390.59;110172;1243;69309;-68
2023/03/07 10:39:53;;;;;;;16.10;11.00;;;;;;;7.01;83.09;96391.42;110156;1244;69277;-68
2023/03/07 10:42:30;;;;;;;14.90;11.50;;;;;;;7.04;81.96;96387.59;110138;1244;59705;-67
2023/03/07 10:45:00;;;;;;;14.00;10.80;;;;;;;7.06;82.46;96384.10;110119;1241;59688;-68
2023/03/07 10:47:29;;;;;;;16.60;11.30;;;;;;;7.24;81.12;96378.81;110197;1244;69902;-68
2023/03/07 10:50:39;;;;;;;15.00;12.20;;;;;;;7.68;81.67;96373.70;110121;1241;69279;-68
2023/03/07 10:53:31;;;;;;;17.60;12.70;;;;;;;8.22;77.79;96366.65;110024;1244;69973;-69
2023/03/07 10:56:19;;;;;;;14.90;11.10;;;;;;;8.44;74.53;96362.85;110197;1247;59741;-66
2023/03/07 10:59:08;;;;;;;11.80;10.00;;;;;;;8.76;74.15;96358.64;110155;1245;59698;-69
2023/03/07 11:01:53;;;;;;;11.10;9.60;;;;;;;9.06;71.93;96358.80;110134;1243;71962;-67
2023/03/07 11:04:26;;;;;;;12.40;11.00;;;;;;;9.06;71.97;96359.80;110120;1241;69270;-68
2023/03/07 11:07:01;;;;;;;11.80;10.10;;;;;;;9.08;71.96;96358.12;110124;1241;69094;-68
2023/03/07 11:09:34;;;;;;;13.30;10.50;;;;;;;9.06;71.63;96362.45;110185;1241;59951;-68
2023/03/07 11:12:08;;;;;;;10.50;9.20;;;;;;;8.88;71.36;96366.16;110151;1243;59691;-68
2023/03/07 11:14:45;;;;;;;11.00;9.10;;;;;;;9.04;70.81;96366.58;110170;1245;71975;-68
2023/03/07 11:17:39;;;;;;;12.60;9.80;;;;;;;9.11;70.48;96366.35;110160;1241;68360;-68
2023/03/07 11:20:29;;;;;;;11.50;8.80;;;;;;;9.28;70.93;96363.02;110135;1244;69119;-68
2023/03/07 11:23:37;;;;;;;11.20;10.10;;;;;;;9.22;68.24;96363.89;110154;1241;59716;-69
2023/03/07 11:26:21;;;;;;;12.60;9.50;;;;;;;9.05;67.03;96358.98;109499;1251;59806;-67
2023/03/07 11:29:23;;;;;;;8.70;7.20;;;;;;;9.19;67.22;96360.13;109454;1247;71953;-67
2023/03/07 11:32:03;;;;;;;9.20;7.80;;;;;;;9.39;66.94;96358.41;109676;1245;69043;-68
2023/03/07 11:34:42;;;;;;;11.10;9.50;;;;;;;9.48;66.72;96358.56;110156;1244;69283;-69
2023/03/07 11:37:23;;;;;;;15.60;11.70;;;;;;;9.64;67.00;96360.31;110101;1241;59747;-69
2023/03/07 11:39:52;;;;;;;12.00;10.50;;;;;;;9.82;67.17;96352.16;110172;1244;59680;-67
2023/03/07 11:42:26;;;;;;;13.60;10.90;;;;;;;10.02;67.60;96350.38;110134;1241;70407;-68
2023/03/07 11:45:26;;;;;;;13.70;10.90;;;;;;;10.06;66.20;96355.48;110128;1243;69840;-68